Laurel Hill, North Carolina
Current Conditions -  °F | °C
As of 2:52 AM on Friday 28 Nov 2014 (Local Time) from KMEB Reporting Station
Clear Clear  
Wind Chill: 27°   Ceiling: Unl
Heat Index: 32°   Visibility: 10mi
Dew Point: 25°   Wind: 5mph
Humidity: 75%   Direction: 330°NNW
Pressure: 30.31"   Gusts: NA
Location:  34.81°N, 79.55°W
Report Text: KMEB 280752Z AUTO 33004KT 10SM CLR 00/M04 A3031 RMK AO2 SLP266 T00001039
Loading
Personal Weather Stations






























Interactive Weather Map New forecast layout! Learn more

10-Day Weather Forecast

Advertisements
Track Severe Weather on mobile